Fernwood, Idaho
Current Conditions -  °F | °C
As of 5:10 AM on Thursday 23 Oct 2014 (Local Time) from KMLP Reporting Station
Moderate Rain Moderate Rain  
Wind Chill: 33°   Ceiling: 400
Heat Index: 38°   Visibility: 0.75mi
Dew Point: 38°   Wind: 7mph
Humidity: 100%   Direction: NA
Pressure: 29.86"   Gusts: 22mph
Location:  47.11°N, 116.4°W
Report Text: KMLP 231210Z AUTO VRB06G19KT 3/4SM RA BR OVC004 03/03 A2986 RMK AO2 P0004 T00330033
Loading
Personal Weather Stations






























Interactive Weather Map
Tropical Storm Tracking
New forecast layout! Learn more

10-Day Weather Forecast

Advertisements
Track Severe Weather on mobile